< < Back
Terminal Aerodrome Forecast


Current Version              Previous Versions:   1  2  3  4  5  6  7  8  9  

Terminal Aerodrome Forecast

318
FTUS42 KFFC 251738
TAFFTY
TAF
KFTY 251738Z 2518/2618 28005KT P6SM SCT040
     FM252000 04006KT P6SM SCT050 SCT250
     FM260100 08004KT P6SM SCT250
     FM261500 05005KT P6SM SCT045=



Latest METAR

323
SAUS70 KWBC 252000 RRG
MTRFTY
METAR KFTY 251953Z 07005KT 10SM SCT060 BKN080 32/20 A3012 RMK AO2 SLP190
T03220200


USA.gov is the U.S. government's official web portal to all federal, state and local government web resources and services.